Time;durP1;ratioP1;P1;durP2;ratioP2;P2;SDS_P1;SDS_P2;PMS_P1;PMS_P2;Temp;Humidity;BMP_temperature;BMP_pressure;BME280_temperature;BME280_humidity;BME280_pressure;Samples;Min_cycle;Max_cycle;Signal;HPM_P1;HPM_P2
2020/12/28 00:00:50;;;;;;;12.87;6.80;;;;;;;-0.07;73.56;96556.47;4898305;29;20463;-61
2020/12/28 00:03:15;;;;;;;13.20;6.97;;;;;;;-0.21;74.45;96552.44;4906576;29;20085;-60
2020/12/28 00:05:40;;;;;;;11.80;7.03;;;;;;;-0.18;74.86;96543.16;4917691;29;20478;-61
2020/12/28 00:08:06;;;;;;;11.40;7.30;;;;;;;-0.13;74.24;96543.94;4904741;29;20434;-60
2020/12/28 00:10:31;;;;;;;12.57;6.63;;;;;;;-0.01;73.78;96546.34;4898608;29;20121;-60
2020/12/28 00:12:57;;;;;;;13.20;6.93;;;;;;;0.03;73.92;96539.59;4898330;29;20100;-60
2020/12/28 00:15:28;;;;;;;13.13;7.13;;;;;;;0.13;73.65;96538.59;4898510;29;20071;-61
2020/12/28 00:17:56;;;;;;;11.43;7.03;;;;;;;0.10;73.38;96533.59;4898868;29;20037;-61
2020/12/28 00:20:24;;;;;;;13.40;6.60;;;;;;;0.10;73.45;96532.78;4902014;29;20036;-60
2020/12/28 00:22:50;;;;;;;11.87;7.07;;;;;;;0.04;73.70;96527.81;4897211;29;20045;-60
2020/12/28 00:25:26;;;;;;;12.80;6.67;;;;;;;0.00;73.85;96522.81;4881204;29;20120;-61
2020/12/28 00:27:52;;;;;;;12.93;7.20;;;;;;;-0.09;73.91;96505.31;4897165;29;20043;-60
2020/12/28 00:30:18;;;;;;;11.77;6.40;;;;;;;-0.21;74.30;96500.38;4897698;29;20532;-61
2020/12/28 00:32:43;;;;;;;11.93;6.23;;;;;;;-0.20;73.84;96502.06;4879772;29;20047;-60
2020/12/28 00:35:10;;;;;;;12.90;7.27;;;;;;;-0.20;74.36;96496.19;4898384;29;20366;-61
2020/12/28 00:37:36;;;;;;;10.80;6.27;;;;;;;-0.33;74.48;96480.38;4899901;29;20087;-60
2020/12/28 00:40:04;;;;;;;12.40;6.83;;;;;;;-0.32;74.24;96474.50;4917895;29;20094;-60
2020/12/28 00:42:29;;;;;;;10.00;6.43;;;;;;;-0.49;75.17;96466.31;4918185;29;20055;-60
2020/12/28 00:44:55;;;;;;;11.90;6.97;;;;;;;-0.39;74.81;96459.50;4902093;29;20088;-61
2020/12/28 00:47:20;;;;;;;9.53;6.00;;;;;;;-0.47;75.05;96459.59;4900979;29;20037;-60
2020/12/28 00:49:46;;;;;;;12.03;7.63;;;;;;;-0.41;74.96;96456.16;4901499;29;20074;-61
2020/12/28 00:52:11;;;;;;;14.73;6.57;;;;;;;-0.42;74.72;96447.75;4901043;29;20119;-59
2020/12/28 00:54:36;;;;;;;11.47;6.27;;;;;;;-0.44;74.24;96446.13;4901344;29;20044;-60
2020/12/28 00:57:02;;;;;;;12.50;6.50;;;;;;;-0.52;74.78;96438.66;4901262;29;20036;-60
2020/12/28 00:59:27;;;;;;;13.50;6.57;;;;;;;-0.48;74.38;96426.03;4899796;29;20199;-60
2020/12/28 01:01:58;;;;;;;10.33;6.20;;;;;;;-0.38;74.43;96433.50;4900759;29;20080;-60
2020/12/28 01:04:24;;;;;;;12.77;7.13;;;;;;;-0.42;74.48;96437.69;4900307;29;20059;-61
2020/12/28 01:06:50;;;;;;;13.17;6.77;;;;;;;-0.42;74.46;96436.91;4900185;29;20040;-60
2020/12/28 01:09:16;;;;;;;9.30;6.60;;;;;;;-0.45;74.76;96432.72;4900227;29;20072;-61
2020/12/28 01:11:42;;;;;;;11.57;6.93;;;;;;;-0.52;75.21;96438.66;4900324;29;20044;-60
2020/12/28 01:14:08;;;;;;;10.03;6.77;;;;;;;-0.41;74.94;96443.56;4900790;29;20369;-62
2020/12/28 01:16:33;;;;;;;11.10;7.33;;;;;;;-0.42;74.74;96452.81;4900895;29;20036;-61
2020/12/28 01:18:59;;;;;;;12.27;7.10;;;;;;;-0.42;74.87;96454.50;4900245;29;20120;-61
2020/12/28 01:21:24;;;;;;;11.67;7.40;;;;;;;-0.46;75.03;96451.16;4900827;29;20047;-61
2020/12/28 01:23:50;;;;;;;11.47;6.60;;;;;;;-0.50;74.80;96444.50;4899948;29;20040;-61
2020/12/28 01:26:19;;;;;;;12.87;7.37;;;;;;;-0.47;74.93;96442.78;4900813;29;20466;-61
2020/12/28 01:28:45;;;;;;;11.67;7.03;;;;;;;-0.55;75.10;96437.00;4899428;29;20040;-61
2020/12/28 01:31:11;;;;;;;13.40;7.33;;;;;;;-0.52;74.77;96431.97;4900294;29;20100;-60
2020/12/28 01:33:36;;;;;;;12.03;7.63;;;;;;;-0.55;74.71;96411.84;4899353;29;20048;-60
2020/12/28 01:36:03;;;;;;;12.37;6.90;;;;;;;-0.54;74.40;96418.53;4901149;29;20036;-60
2020/12/28 01:38:28;;;;;;;10.63;6.40;;;;;;;-0.51;74.27;96416.00;4899767;29;20041;-61
2020/12/28 01:40:54;;;;;;;10.70;6.57;;;;;;;-0.51;72.95;96400.88;4901291;29;20042;-61
2020/12/28 01:43:19;;;;;;;11.30;6.23;;;;;;;-0.28;71.86;96397.28;4896765;29;20045;-61
2020/12/28 01:45:45;;;;;;;8.30;5.50;;;;;;;-0.28;71.38;96397.28;4882344;29;20053;-61
2020/12/28 01:48:11;;;;;;;10.60;6.20;;;;;;;-0.17;71.20;96380.34;4881148;29;20312;-61
2020/12/28 01:50:37;;;;;;;9.47;6.00;;;;;;;-0.12;70.91;96355.91;4900996;29;20044;-61
2020/12/28 01:53:03;;;;;;;9.60;5.80;;;;;;;-0.13;70.91;96351.75;4899539;29;20116;-61
2020/12/28 01:55:31;;;;;;;10.13;5.83;;;;;;;-0.17;70.50;96353.47;4899487;29;20063;-61
2020/12/28 01:57:56;;;;;;;10.53;5.70;;;;;;;-0.18;70.19;96348.47;4899945;29;20045;-61
2020/12/28 02:00:21;;;;;;;8.83;6.67;;;;;;;-0.13;70.13;96350.06;4898514;29;20044;-61
2020/12/28 02:02:47;;;;;;;9.83;6.53;;;;;;;-0.12;69.73;96334.09;4900633;29;20496;-61
2020/12/28 02:05:13;;;;;;;10.37;6.50;;;;;;;-0.14;69.71;96328.28;4899044;29;20036;-61
2020/12/28 02:07:39;;;;;;;10.87;7.00;;;;;;;-0.14;70.19;96328.28;4899808;29;20036;-61
2020/12/28 02:10:07;;;;;;;11.13;6.63;;;;;;;-0.06;69.46;96313.88;4899617;29;20037;-62
2020/12/28 02:12:34;;;;;;;8.70;6.37;;;;;;;-0.16;69.85;96304.78;4891762;29;20068;-61
2020/12/28 02:14:59;;;;;;;10.03;6.80;;;;;;;-0.29;69.72;96287.34;4881053;29;20079;-61
2020/12/28 02:17:25;;;;;;;12.67;6.80;;;;;;;-0.25;69.75;96292.31;4885640;29;20438;-61
2020/12/28 02:19:51;;;;;;;10.97;6.83;;;;;;;-0.18;69.36;96280.50;4900076;29;20096;-61
2020/12/28 02:22:16;;;;;;;12.47;7.20;;;;;;;-0.16;69.12;96273.75;4898565;29;20040;-61
2020/12/28 02:24:41;;;;;;;9.70;6.40;;;;;;;-0.22;69.34;96259.56;4900317;29;20046;-60
2020/12/28 02:27:07;;;;;;;10.13;6.50;;;;;;;-0.13;68.74;96241.78;4898493;29;20458;-60
2020/12/28 02:29:32;;;;;;;11.47;7.53;;;;;;;-0.12;68.68;96233.38;4900147;29;20036;-60
2020/12/28 02:31:59;;;;;;;13.27;6.90;;;;;;;-0.20;68.64;96217.56;4898848;29;20459;-60
2020/12/28 02:34:25;;;;;;;10.53;6.53;;;;;;;-0.19;68.68;96200.78;4897981;29;20043;-60
2020/12/28 02:36:50;;;;;;;11.17;6.77;;;;;;;-0.22;68.51;96184.06;4898925;29;20095;-60
2020/12/28 02:39:16;;;;;;;12.77;7.43;;;;;;;-0.25;68.45;96181.56;4899232;29;20466;-60
2020/12/28 02:41:41;;;;;;;9.90;6.40;;;;;;;-0.23;68.30;96164.75;4898772;29;20522;-61
2020/12/28 02:44:06;;;;;;;11.33;6.63;;;;;;;-0.24;68.61;96174.84;4871397;29;20040;-61
2020/12/28 02:46:32;;;;;;;11.17;7.13;;;;;;;-0.24;68.85;96160.59;4881053;29;20044;-60
2020/12/28 02:48:57;;;;;;;13.43;7.63;;;;;;;-0.29;68.70;96169.88;4887960;29;20127;-60
2020/12/28 02:51:22;;;;;;;10.63;6.43;;;;;;;-0.23;68.55;96171.47;4899012;29;20047;-59
2020/12/28 02:53:48;;;;;;;10.87;6.47;;;;;;;-0.25;68.57;96161.44;4898312;29;20123;-61
2020/12/28 02:56:13;;;;;;;11.70;7.07;;;;;;;-0.29;68.82;96167.38;4899197;29;20036;-61
2020/12/28 02:58:39;;;;;;;10.80;6.20;;;;;;;-0.34;69.31;96175.88;4898469;29;20052;-61
2020/12/28 03:01:04;;;;;;;11.10;7.03;;;;;;;-0.37;69.01;96173.38;4899476;29;20037;-61
2020/12/28 03:03:29;;;;;;;10.70;7.07;;;;;;;-0.32;69.36;96195.13;4877006;29;20366;-61
2020/12/28 03:05:55;;;;;;;11.10;6.40;;;;;;;-0.25;68.85;96178.22;4896926;29;20123;-61
2020/12/28 03:08:20;;;;;;;10.77;6.17;;;;;;;-0.29;68.78;96167.38;4897158;29;20032;-61
2020/12/28 03:10:46;;;;;;;11.00;6.07;;;;;;;-0.43;69.37;96159.22;4900529;29;20127;-61
2020/12/28 03:13:11;;;;;;;10.33;6.53;;;;;;;-0.43;69.29;96158.41;4900455;29;20087;-61
2020/12/28 03:15:37;;;;;;;12.87;6.63;;;;;;;-0.53;70.06;96158.53;4898682;29;20370;-61
2020/12/28 03:18:02;;;;;;;13.20;7.17;;;;;;;-0.55;70.18;96160.22;4897993;29;20036;-61
2020/12/28 03:20:28;;;;;;;10.10;6.70;;;;;;;-0.57;70.01;96146.03;4898494;29;20052;-61
2020/12/28 03:22:53;;;;;;;11.27;7.03;;;;;;;-0.41;69.75;96124.78;4893681;29;20362;-61
2020/12/28 03:25:18;;;;;;;11.90;6.50;;;;;;;-0.48;70.14;96103.13;4891706;29;20127;-61
2020/12/28 03:27:44;;;;;;;11.07;6.37;;;;;;;-0.51;70.21;96081.31;4895260;29;20059;-61
2020/12/28 03:30:09;;;;;;;12.33;6.50;;;;;;;-0.48;70.14;96065.38;4898662;29;20484;-61
2020/12/28 03:32:35;;;;;;;11.57;5.77;;;;;;;-0.52;70.13;96044.47;4896660;29;20076;-61
2020/12/28 03:35:00;;;;;;;12.50;7.20;;;;;;;-0.49;70.30;96039.38;4898948;29;20032;-61
2020/12/28 03:37:25;;;;;;;11.20;7.10;;;;;;;-0.55;70.63;96047.00;4898693;29;20049;-61
2020/12/28 03:39:51;;;;;;;11.70;7.50;;;;;;;-0.61;71.23;96038.75;4898667;29;20112;-61
2020/12/28 03:42:16;;;;;;;13.13;7.37;;;;;;;-0.63;71.04;96046.31;4898676;29;20036;-61
2020/12/28 03:44:42;;;;;;;12.40;7.50;;;;;;;-0.61;71.23;96038.75;4898436;29;20052;-62
2020/12/28 03:47:07;;;;;;;10.10;6.60;;;;;;;-0.68;71.49;96042.25;4898789;29;20066;-61
2020/12/28 03:49:33;;;;;;;12.20;8.00;;;;;;;-0.63;71.50;96035.41;4898727;29;20036;-61
2020/12/28 03:51:58;;;;;;;15.90;8.47;;;;;;;-0.76;72.01;96032.28;4898883;29;20033;-61
2020/12/28 03:54:23;;;;;;;16.07;10.03;;;;;;;-0.76;72.35;96022.22;4898658;29;20351;-61
2020/12/28 03:56:49;;;;;;;14.97;8.43;;;;;;;-0.70;72.33;96024.66;4897084;29;20048;-61
2020/12/28 03:59:14;;;;;;;14.73;7.70;;;;;;;-0.72;72.15;96028.88;4898812;29;20047;-61
2020/12/28 04:01:40;;;;;;;15.87;9.00;;;;;;;-0.88;73.03;96055.13;4898844;29;20398;-61
2020/12/28 04:04:05;;;;;;;13.97;7.93;;;;;;;-0.88;73.07;96046.75;4899123;29;20044;-61
2020/12/28 04:06:31;;;;;;;13.80;8.00;;;;;;;-0.86;72.99;96045.88;4899079;29;20374;-61
2020/12/28 04:08:56;;;;;;;12.67;7.97;;;;;;;-0.85;72.72;96044.22;4898255;29;20033;-61
2020/12/28 04:11:22;;;;;;;14.00;7.53;;;;;;;-0.87;72.85;96049.25;4898548;29;20119;-61
2020/12/28 04:13:47;;;;;;;15.00;7.90;;;;;;;-0.95;73.10;96046.03;4896309;29;20032;-61
2020/12/28 04:16:16;;;;;;;13.70;8.63;;;;;;;-0.86;73.26;96050.09;4900714;29;20052;-61
2020/12/28 04:18:42;;;;;;;15.27;8.40;;;;;;;-0.94;73.60;96041.00;4902009;29;20047;-61
2020/12/28 04:21:07;;;;;;;11.47;8.17;;;;;;;-0.93;73.24;96045.13;4902075;29;20029;-61
2020/12/28 04:23:33;;;;;;;14.83;8.90;;;;;;;-0.92;73.38;96040.94;4901566;29;20060;-61
2020/12/28 04:25:58;;;;;;;13.37;8.10;;;;;;;-0.92;73.53;96043.47;4902070;29;20037;-60
2020/12/28 04:28:23;;;;;;;12.73;8.20;;;;;;;-0.93;73.48;96039.28;4885424;29;20038;-61
2020/12/28 04:30:49;;;;;;;14.00;8.03;;;;;;;-0.83;72.67;96033.25;4898149;29;20169;-60
2020/12/28 04:33:16;;;;;;;16.20;9.87;;;;;;;-0.81;73.02;96021.50;4899990;29;20103;-61
2020/12/28 04:35:41;;;;;;;14.33;7.87;;;;;;;-0.78;72.94;96028.97;4901004;29;20041;-61
2020/12/28 04:38:07;;;;;;;13.40;7.87;;;;;;;-0.71;72.74;96002.84;4900279;29;20692;-60
2020/12/28 04:40:32;;;;;;;14.83;8.73;;;;;;;-0.63;72.31;96001.03;4900515;29;20514;-61
2020/12/28 04:43:00;;;;;;;13.77;7.93;;;;;;;-0.62;72.25;95999.34;4901967;29;20055;-61
2020/12/28 04:45:25;;;;;;;16.10;9.17;;;;;;;-0.58;72.05;95980.84;4899889;29;20060;-61
2020/12/28 04:47:51;;;;;;;16.27;9.13;;;;;;;-0.67;72.43;95981.81;4901238;29;20036;-61
2020/12/28 04:50:17;;;;;;;13.93;9.00;;;;;;;-0.63;72.12;95980.91;4899748;29;20073;-61
2020/12/28 04:52:42;;;;;;;13.43;7.73;;;;;;;-0.55;71.92;95980.75;4901244;29;20056;-61
2020/12/28 04:55:08;;;;;;;13.90;8.97;;;;;;;-0.56;71.63;95971.59;4900265;29;20040;-61
2020/12/28 04:57:33;;;;;;;14.83;8.00;;;;;;;-0.55;71.44;95964.00;4902543;29;20036;-61
2020/12/28 04:59:59;;;;;;;13.43;7.40;;;;;;;-0.46;71.07;95942.84;4901221;29;20079;-61
2020/12/28 05:02:24;;;;;;;12.57;7.93;;;;;;;-0.45;71.15;95926.91;4901154;29;20048;-61
2020/12/28 05:04:50;;;;;;;16.67;9.53;;;;;;;-0.46;70.86;95925.25;4901314;29;20103;-61
2020/12/28 05:07:16;;;;;;;17.23;9.07;;;;;;;-0.41;70.88;95961.22;4899023;29;20040;-60
2020/12/28 05:09:41;;;;;;;16.97;8.83;;;;;;;-0.38;70.17;95968.69;4900669;29;20383;-61
2020/12/28 05:12:07;;;;;;;15.37;8.30;;;;;;;-0.30;70.23;95968.56;4899210;29;20067;-61
2020/12/28 05:14:33;;;;;;;16.63;9.30;;;;;;;-0.35;70.23;95966.16;4899874;29;20131;-61
2020/12/28 05:17:01;;;;;;;16.43;9.00;;;;;;;-0.23;69.49;95970.94;4901128;29;20091;-61
2020/12/28 05:19:27;;;;;;;15.07;8.93;;;;;;;-0.09;69.35;95973.19;4900078;29;20415;-61
2020/12/28 05:21:54;;;;;;;15.40;9.40;;;;;;;-0.12;69.31;95963.97;4900898;29;20440;-62
2020/12/28 05:24:20;;;;;;;16.23;8.73;;;;;;;-0.08;68.69;95950.47;4900049;29;20036;-61
2020/12/28 05:26:47;;;;;;;14.63;8.87;;;;;;;-0.07;69.04;95967.25;4900320;29;20040;-61
2020/12/28 05:29:20;;;;;;;15.83;9.00;;;;;;;-0.05;68.84;95963.03;4882797;29;20040;-61
2020/12/28 05:31:47;;;;;;;15.57;9.43;;;;;;;-0.03;68.86;95958.75;4900696;29;20040;-61
2020/12/28 05:34:16;;;;;;;14.93;8.93;;;;;;;-0.03;68.84;95968.84;4899718;29;20458;-61
2020/12/28 05:36:42;;;;;;;14.73;8.60;;;;;;;-0.01;68.62;95972.16;4900689;29;20044;-61
2020/12/28 05:39:09;;;;;;;15.27;8.80;;;;;;;-0.09;68.81;95961.44;4899306;29;20161;-61
2020/12/28 05:41:34;;;;;;;14.37;8.73;;;;;;;-0.09;68.99;95958.06;4887676;29;20037;-61
2020/12/28 05:44:12;;;;;;;16.97;8.80;;;;;;;0.06;68.39;95961.94;4880367;29;20108;-61
2020/12/28 05:46:38;;;;;;;14.97;8.90;;;;;;;-0.03;68.32;95946.19;4888898;29;20068;-61
2020/12/28 05:49:07;;;;;;;12.17;8.17;;;;;;;0.05;68.44;95946.00;4883697;29;20470;-61
2020/12/28 05:51:34;;;;;;;14.10;8.30;;;;;;;0.03;68.25;95950.25;4886568;29;20051;-61
2020/12/28 05:54:07;;;;;;;14.50;9.30;;;;;;;0.05;68.21;95935.94;4900006;29;20126;-61
2020/12/28 05:56:34;;;;;;;14.90;9.73;;;;;;;0.07;68.05;95939.25;4899203;29;20040;-61
2020/12/28 05:59:02;;;;;;;15.13;9.10;;;;;;;-0.01;68.33;95939.44;4898771;29;20052;-60
2020/12/28 06:01:30;;;;;;;14.07;8.77;;;;;;;-0.02;68.23;95934.41;4889439;29;20045;-61
2020/12/28 06:04:00;;;;;;;17.13;8.97;;;;;;;0.12;68.03;95946.72;4881268;29;20128;-61
2020/12/28 06:06:27;;;;;;;16.37;9.13;;;;;;;0.10;67.75;95939.19;4889749;29;20036;-61
2020/12/28 06:08:53;;;;;;;14.20;9.40;;;;;;;0.01;68.03;95939.38;4900238;29;20558;-61
2020/12/28 06:11:19;;;;;;;14.10;8.60;;;;;;;0.09;67.75;95944.25;4899081;29;20068;-61
2020/12/28 06:13:45;;;;;;;16.27;8.77;;;;;;;0.05;67.62;95932.59;4899666;29;20466;-61
2020/12/28 06:16:21;;;;;;;16.93;9.33;;;;;;;0.00;67.85;95931.00;4898881;29;20056;-61
2020/12/28 06:18:55;;;;;;;15.47;9.60;;;;;;;0.09;67.71;95931.66;4899903;29;20076;-61
2020/12/28 06:21:21;;;;;;;16.70;9.20;;;;;;;0.04;67.15;95919.19;4899149;29;20377;-60
2020/12/28 06:23:50;;;;;;;14.03;8.27;;;;;;;0.11;67.38;95927.44;4899666;29;20040;-61
2020/12/28 06:26:20;;;;;;;18.00;9.93;;;;;;;0.14;67.33;95923.16;4898632;29;20033;-61
2020/12/28 06:28:46;;;;;;;14.20;7.97;;;;;;;0.08;66.89;95919.94;4899601;29;20421;-61
2020/12/28 06:31:11;;;;;;;13.80;8.10;;;;;;;0.09;67.04;95921.59;4898116;29;20036;-61
2020/12/28 06:33:47;;;;;;;16.10;9.23;;;;;;;0.17;66.98;95915.50;4881062;29;20041;-61
2020/12/28 06:36:17;;;;;;;14.90;8.13;;;;;;;0.19;66.57;95923.88;4879685;29;20470;-61
2020/12/28 06:38:53;;;;;;;14.53;8.67;;;;;;;0.14;66.82;95917.28;4895725;29;20123;-61
2020/12/28 06:41:29;;;;;;;12.57;8.00;;;;;;;0.23;66.47;95917.91;4898654;29;20064;-61
2020/12/28 06:44:04;;;;;;;11.87;7.10;;;;;;;0.24;66.55;95921.25;4886215;29;20044;-60
2020/12/28 06:46:30;;;;;;;14.50;8.20;;;;;;;0.26;66.33;95922.03;4881231;29;20415;-61
2020/12/28 06:48:57;;;;;;;12.37;7.00;;;;;;;0.32;65.58;95922.75;4891306;29;20473;-60
2020/12/28 06:51:23;;;;;;;10.87;6.87;;;;;;;0.36;65.52;95923.50;4898612;29;20044;-60
2020/12/28 06:53:55;;;;;;;14.47;7.40;;;;;;;0.43;65.07;95917.44;4898298;29;20039;-60
2020/12/28 06:56:25;;;;;;;11.63;8.43;;;;;;;0.54;64.42;95915.53;4899061;29;20037;-60
2020/12/28 06:58:58;;;;;;;11.20;7.03;;;;;;;0.67;63.91;95911.84;4897970;29;20068;-60
2020/12/28 07:01:25;;;;;;;11.87;6.90;;;;;;;0.71;63.34;95908.38;4899011;29;20446;-60
2020/12/28 07:03:51;;;;;;;9.77;6.70;;;;;;;0.85;62.67;95908.03;4898044;29;20056;-61
2020/12/28 07:06:17;;;;;;;11.70;7.07;;;;;;;0.98;62.41;95911.09;4899141;29;20041;-60
2020/12/28 07:08:43;;;;;;;10.80;6.37;;;;;;;1.03;61.68;95906.75;4898038;29;20029;-60
2020/12/28 07:11:08;;;;;;;12.47;6.37;;;;;;;1.07;61.81;95900.75;4899122;29;20108;-60
2020/12/28 07:13:34;;;;;;;11.23;5.97;;;;;;;1.21;60.37;95902.06;4897949;29;20067;-60
2020/12/28 07:16:06;;;;;;;10.00;6.03;;;;;;;1.35;60.08;95904.22;4897700;29;20036;-60
2020/12/28 07:18:33;;;;;;;10.13;5.67;;;;;;;1.37;60.42;95899.94;4892864;29;20093;-60
2020/12/28 07:20:59;;;;;;;7.63;5.07;;;;;;;1.47;59.47;95893.78;4897793;29;20407;-60
2020/12/28 07:23:26;;;;;;;5.57;4.13;;;;;;;1.69;58.69;95892.31;4897649;29;20032;-61
2020/12/28 07:26:05;;;;;;;6.30;4.07;;;;;;;1.92;57.55;95885.75;4898784;29;20403;-61
2020/12/28 07:28:31;;;;;;;6.67;4.00;;;;;;;2.00;56.80;95871.19;4897817;29;20124;-61
2020/12/28 07:30:58;;;;;;;6.10;3.53;;;;;;;2.07;57.15;95877.75;4898431;29;20076;-61
2020/12/28 07:33:24;;;;;;;5.97;2.87;;;;;;;2.20;56.02;95876.50;4897198;29;20035;-61
2020/12/28 07:36:03;;;;;;;5.40;3.33;;;;;;;2.42;55.58;95869.09;4898879;29;20032;-61
2020/12/28 07:38:29;;;;;;;9.23;4.83;;;;;;;2.62;54.20;95872.63;4897102;29;20033;-60
2020/12/28 07:40:54;;;;;;;8.87;4.57;;;;;;;2.59;55.07;95871.91;4881094;29;20128;-61
2020/12/28 07:43:20;;;;;;;11.03;5.93;;;;;;;2.58;55.27;95875.31;4897473;29;20087;-61
2020/12/28 07:45:46;;;;;;;14.43;6.70;;;;;;;2.50;55.63;95882.31;4912313;29;20142;-62
2020/12/28 07:48:16;;;;;;;12.17;6.03;;;;;;;2.25;57.33;95877.16;4910901;29;20140;-62
2020/12/28 07:50:43;;;;;;;12.27;7.10;;;;;;;1.77;59.92;95887.88;4901591;29;20029;-61
2020/12/28 07:53:19;;;;;;;13.80;7.60;;;;;;;1.70;60.98;95883.84;4902298;29;20366;-61
2020/12/28 07:56:16;;;;;;;13.13;7.70;;;;;;;1.57;61.60;95897.69;4902362;29;20168;-61
2020/12/28 07:59:08;;;;;;;14.80;7.80;;;;;;;1.31;62.83;95905.16;4900393;29;20044;-60
2020/12/28 08:01:45;;;;;;;10.37;7.47;;;;;;;1.32;62.93;95895.00;4902866;29;20047;-60
2020/12/28 08:04:20;;;;;;;15.93;10.50;;;;;;;1.37;63.25;95898.25;4902117;29;20096;-60
2020/12/28 08:06:46;;;;;;;39.88;19.80;;;;;;;1.43;62.92;95904.00;4901264;29;20036;-61
2020/12/28 08:09:12;;;;;;;17.57;9.20;;;;;;;1.32;62.95;95892.50;4900424;29;20372;-61
2020/12/28 08:11:37;;;;;;;13.83;7.90;;;;;;;1.43;63.03;95886.34;4887223;29;20047;-61
2020/12/28 08:14:10;;;;;;;13.90;9.13;;;;;;;1.53;63.47;95875.94;4886536;29;20033;-61
2020/12/28 08:16:36;;;;;;;18.40;10.00;;;;;;;1.49;63.45;95879.41;4890497;29;20036;-60
2020/12/28 08:19:02;;;;;;;16.67;9.93;;;;;;;1.51;63.09;95876.84;4889831;29;20033;-61
2020/12/28 08:21:41;;;;;;;14.13;8.33;;;;;;;1.67;62.78;95880.59;4887030;29;20441;-61
2020/12/28 08:24:16;;;;;;;21.43;13.60;;;;;;;1.74;62.12;95877.03;4889191;29;20033;-60
2020/12/28 08:26:42;;;;;;;21.57;13.63;;;;;;;1.76;62.62;95883.69;4873280;29;20131;-61
2020/12/28 08:29:08;;;;;;;17.80;9.57;;;;;;;1.61;62.55;95886.63;4891956;29;20033;-61
2020/12/28 08:31:34;;;;;;;14.80;10.07;;;;;;;1.70;62.05;95888.06;4886687;29;20093;-61
2020/12/28 08:34:07;;;;;;;16.57;9.93;;;;;;;1.74;61.92;95894.72;4884824;29;20036;-61
2020/12/28 08:36:34;;;;;;;16.93;10.00;;;;;;;1.75;61.44;95893.81;4884360;29;20033;-60
2020/12/28 08:39:14;;;;;;;15.67;9.50;;;;;;;1.85;61.86;95882.59;4887847;29;20032;-61
2020/12/28 08:41:54;;;;;;;18.70;9.97;;;;;;;1.96;61.46;95887.31;4888549;29;20464;-61
2020/12/28 08:44:34;;;;;;;14.17;9.67;;;;;;;2.04;61.30;95877.81;4885231;29;20060;-61
2020/12/28 08:47:03;;;;;;;18.37;9.70;;;;;;;2.13;60.82;95872.50;4887061;29;20029;-61
2020/12/28 08:49:33;;;;;;;21.93;10.87;;;;;;;2.21;60.89;95881.50;4887585;29;20044;-61
2020/12/28 08:52:09;;;;;;;18.67;11.80;;;;;;;2.08;61.54;95892.03;4887110;29;20111;-60
2020/12/28 08:54:34;;;;;;;17.37;11.77;;;;;;;2.16;60.69;95883.34;4889004;29;20044;-61
2020/12/28 08:57:00;;;;;;;21.47;13.40;;;;;;;2.17;61.17;95879.09;4884323;29;20040;-61
2020/12/28 08:59:25;;;;;;;21.33;13.33;;;;;;;2.37;60.17;95866.69;4885149;29;20431;-61
2020/12/28 09:01:52;;;;;;;21.40;12.40;;;;;;;2.44;60.36;95888.38;4883848;29;20112;-61
2020/12/28 09:04:18;;;;;;;18.93;11.97;;;;;;;2.41;61.16;95880.06;4886733;29;20029;-61
2020/12/28 09:06:43;;;;;;;19.80;11.50;;;;;;;2.32;61.03;95901.41;4886206;29;20459;-60
2020/12/28 09:09:09;;;;;;;18.53;10.97;;;;;;;2.25;61.77;95889.81;4884291;29;20116;-62
2020/12/28 09:11:34;;;;;;;7.67;4.97;;;;;;;2.68;56.99;95892.66;4900955;29;20124;-61
2020/12/28 09:14:00;;;;;;;9.93;4.43;;;;;;;3.21;54.70;95892.59;4900082;29;20359;-61
2020/12/28 09:16:25;;;;;;;8.87;4.83;;;;;;;3.49;54.20;95902.56;4899105;29;20474;-61
2020/12/28 09:18:51;;;;;;;5.47;3.40;;;;;;;3.76;53.87;95901.59;4900711;29;20074;-61
2020/12/28 09:21:16;;;;;;;4.50;3.23;;;;;;;3.90;53.69;95889.25;4892960;29;20040;-61
2020/12/28 09:23:42;;;;;;;3.90;2.97;;;;;;;4.12;52.55;95894.34;4901092;29;20043;-61
2020/12/28 09:26:07;;;;;;;5.03;2.53;;;;;;;4.32;52.02;95891.06;4899675;29;20115;-60
2020/12/28 09:28:32;;;;;;;3.93;2.50;;;;;;;4.63;51.35;95891.50;4901152;29;20055;-60
2020/12/28 09:30:58;;;;;;;3.63;3.13;;;;;;;4.82;50.31;95876.38;4891801;29;20116;-60
2020/12/28 09:33:23;;;;;;;6.20;3.47;;;;;;;5.02;50.39;95886.53;4882413;29;20451;-60
2020/12/28 09:35:49;;;;;;;10.17;5.03;;;;;;;5.18;49.91;95877.38;4885330;29;20055;-60
2020/12/28 09:38:14;;;;;;;6.83;3.87;;;;;;;5.25;49.67;95871.16;4899178;29;20339;-60
2020/12/28 09:40:40;;;;;;;7.10;4.17;;;;;;;5.28;49.13;95876.09;4899685;29;20037;-60
2020/12/28 09:43:05;;;;;;;6.17;3.10;;;;;;;5.33;48.33;95869.13;4900662;29;20081;-60
2020/12/28 09:45:37;;;;;;;4.40;2.90;;;;;;;5.38;48.04;95866.38;4907528;29;20052;-60
2020/12/28 09:48:06;;;;;;;11.90;4.30;;;;;;;5.41;48.40;95864.53;4906502;29;20355;-60
2020/12/28 09:50:31;;;;;;;8.60;4.50;;;;;;;5.37;48.48;95855.41;4897604;29;20040;-61
2020/12/28 09:52:57;;;;;;;3.93;2.97;;;;;;;5.36;48.25;95870.69;4899557;29;20039;-61
2020/12/28 09:55:22;;;;;;;5.07;2.80;;;;;;;5.48;47.81;95865.09;4905219;29;20063;-61
2020/12/28 09:57:48;;;;;;;11.10;3.57;;;;;;;5.49;48.19;95871.81;4899731;29;20033;-60
2020/12/28 10:00:14;;;;;;;3.80;2.40;;;;;;;5.60;47.79;95863.75;4898152;29;20514;-61
2020/12/28 10:02:40;;;;;;;4.80;1.90;;;;;;;5.58;48.10;95865.53;4898368;29;20044;-61
2020/12/28 10:05:09;;;;;;;3.00;2.00;;;;;;;5.58;47.80;95865.53;4898543;29;20055;-61
2020/12/28 10:07:34;;;;;;;4.03;1.93;;;;;;;5.54;47.88;95864.84;4898245;29;20454;-61
2020/12/28 10:10:00;;;;;;;3.53;2.20;;;;;;;5.61;48.14;95858.56;4898317;29;20107;-61
2020/12/28 10:12:27;;;;;;;3.40;2.63;;;;;;;5.84;47.83;95858.41;4882141;29;20043;-61
2020/12/28 10:14:52;;;;;;;3.63;2.73;;;;;;;5.73;48.17;95869.94;4881588;29;20118;-61
2020/12/28 10:17:18;;;;;;;2.53;2.17;;;;;;;5.83;47.60;95869.44;4898025;29;20150;-61
2020/12/28 10:19:44;;;;;;;3.67;2.50;;;;;;;5.64;48.68;95866.09;4897998;29;20033;-61
2020/12/28 10:22:11;;;;;;;3.83;3.07;;;;;;;5.75;48.31;95856.25;4883059;29;20032;-61
2020/12/28 10:24:36;;;;;;;2.43;2.03;;;;;;;5.69;48.48;95868.41;4895834;29;20032;-61
2020/12/28 10:27:01;;;;;;;2.70;2.00;;;;;;;5.67;48.37;95870.19;4897799;29;20048;-61
2020/12/28 10:29:27;;;;;;;3.63;2.53;;;;;;;5.63;48.60;95876.31;4898290;29;20044;-62
2020/12/28 10:31:56;;;;;;;2.73;1.97;;;;;;;5.73;48.77;95865.66;4890186;29;20044;-61
2020/12/28 10:34:28;;;;;;;6.27;2.87;;;;;;;5.83;49.25;95868.63;5030548;27;20356;-61
2020/12/28 10:36:53;;;;;;;4.13;2.77;;;;;;;5.73;50.05;95863.13;5022443;28;20044;-61
2020/12/28 10:39:19;;;;;;;4.20;2.87;;;;;;;5.71;50.21;95862.38;5022238;28;20053;-61
2020/12/28 10:41:44;;;;;;;4.17;2.43;;;;;;;5.64;50.37;95858.47;5022475;28;20034;-61
2020/12/28 10:44:10;;;;;;;3.80;2.83;;;;;;;5.71;50.39;95859.00;5021366;28;20524;-62
2020/12/28 10:46:37;;;;;;;4.10;2.53;;;;;;;5.70;50.05;95842.94;5021343;28;20022;-61
2020/12/28 10:49:06;;;;;;;4.30;2.90;;;;;;;5.83;49.81;95853.38;5023930;28;20032;-62
2020/12/28 10:51:32;;;;;;;2.90;2.57;;;;;;;5.87;49.52;95848.13;5022409;28;20063;-61
2020/12/28 10:53:58;;;;;;;3.10;2.43;;;;;;;5.93;49.83;95850.38;5023763;28;20053;-62
2020/12/28 10:56:24;;;;;;;4.87;2.00;;;;;;;6.16;49.27;95851.88;5024120;28;20034;-62
2020/12/28 10:58:49;;;;;;;3.13;2.50;;;;;;;6.18;48.87;95850.09;5024389;28;20061;-61
2020/12/28 11:01:15;;;;;;;4.17;2.60;;;;;;;6.31;48.82;95860.50;5025161;28;20025;-60
2020/12/28 11:03:40;;;;;;;3.77;2.43;;;;;;;6.23;49.08;95848.16;5023729;27;20404;-63
2020/12/28 11:06:06;;;;;;;3.47;2.20;;;;;;;6.20;49.41;95862.72;5022210;28;20036;-60
2020/12/28 11:08:31;;;;;;;3.40;2.37;;;;;;;6.11;50.12;95871.59;5024765;28;20030;-61
2020/12/28 11:10:57;;;;;;;3.07;2.10;;;;;;;6.02;50.58;95886.47;5022799;28;20031;-62
2020/12/28 11:13:22;;;;;;;4.20;3.13;;;;;;;5.85;50.54;95877.03;5022712;28;20062;-62
2020/12/28 11:15:48;;;;;;;3.73;3.07;;;;;;;5.69;50.93;95874.31;5023383;28;20366;-61
2020/12/28 11:18:13;;;;;;;4.10;2.63;;;;;;;5.51;51.60;95863.25;5021244;28;20080;-62
2020/12/28 11:20:39;;;;;;;4.40;2.77;;;;;;;5.40;51.51;95855.25;5022165;28;20037;-62
2020/12/28 11:23:04;;;;;;;2.57;2.37;;;;;;;5.26;52.35;95846.59;5021747;28;20479;-62
2020/12/28 11:25:29;;;;;;;4.33;2.63;;;;;;;5.30;51.90;95845.56;5022854;28;20051;-63
2020/12/28 11:27:55;;;;;;;3.47;2.33;;;;;;;5.41;51.68;95851.00;5026535;28;20033;-60
2020/12/28 11:30:20;;;;;;;4.17;2.50;;;;;;;5.28;52.31;95840.56;5009281;28;20107;-60